sensor_id;sensor_type;location;lat;lon;timestamp;P1;durP1;ratioP1;P2;durP2;ratioP2
52126;SDS011;38120;53.176;6.614;2023-05-21T00:04:54;8.73;;;4.15;;
52126;SDS011;38120;53.176;6.614;2023-05-21T00:07:20;9.60;;;4.68;;
52126;SDS011;38120;53.176;6.614;2023-05-21T00:09:45;9.65;;;4.15;;
52126;SDS011;38120;53.176;6.614;2023-05-21T00:12:11;10.05;;;4.60;;
52126;SDS011;38120;53.176;6.614;2023-05-21T00:14:37;6.22;;;3.40;;
52126;SDS011;38120;53.176;6.614;2023-05-21T00:17:02;9.35;;;4.50;;
52126;SDS011;38120;53.176;6.614;2023-05-21T00:19:29;8.13;;;4.32;;
52126;SDS011;38120;53.176;6.614;2023-05-21T00:21:56;8.00;;;3.88;;
52126;SDS011;38120;53.176;6.614;2023-05-21T00:24:26;9.35;;;4.00;;
52126;SDS011;38120;53.176;6.614;2023-05-21T00:26:53;8.50;;;4.78;;
52126;SDS011;38120;53.176;6.614;2023-05-21T00:29:18;9.48;;;4.07;;
52126;SDS011;38120;53.176;6.614;2023-05-21T00:31:44;12.90;;;4.00;;
52126;SDS011;38120;53.176;6.614;2023-05-21T00:34:11;6.67;;;3.63;;
52126;SDS011;38120;53.176;6.614;2023-05-21T00:36:37;6.40;;;3.88;;
52126;SDS011;38120;53.176;6.614;2023-05-21T00:39:04;8.32;;;4.30;;
52126;SDS011;38120;53.176;6.614;2023-05-21T00:41:30;6.45;;;4.47;;
52126;SDS011;38120;53.176;6.614;2023-05-21T00:43:56;7.50;;;4.17;;
52126;SDS011;38120;53.176;6.614;2023-05-21T00:46:24;6.65;;;3.78;;
52126;SDS011;38120;53.176;6.614;2023-05-21T00:48:52;6.30;;;3.78;;
52126;SDS011;38120;53.176;6.614;2023-05-21T00:51:18;6.90;;;3.92;;
52126;SDS011;38120;53.176;6.614;2023-05-21T00:53:48;6.95;;;4.47;;
52126;SDS011;38120;53.176;6.614;2023-05-21T00:56:15;11.73;;;4.57;;
52126;SDS011;38120;53.176;6.614;2023-05-21T00:58:41;13.57;;;4.35;;
52126;SDS011;38120;53.176;6.614;2023-05-21T01:01:07;7.13;;;4.15;;
52126;SDS011;38120;53.176;6.614;2023-05-21T01:03:37;9.60;;;4.30;;
52126;SDS011;38120;53.176;6.614;2023-05-21T01:06:05;9.70;;;4.68;;
52126;SDS011;38120;53.176;6.614;2023-05-21T01:08:32;9.50;;;4.40;;
52126;SDS011;38120;53.176;6.614;2023-05-21T01:10:59;10.38;;;4.93;;
52126;SDS011;38120;53.176;6.614;2023-05-21T01:13:26;7.05;;;4.43;;
52126;SDS011;38120;53.176;6.614;2023-05-21T01:15:53;8.00;;;4.70;;
52126;SDS011;38120;53.176;6.614;2023-05-21T01:18:19;7.05;;;4.07;;
52126;SDS011;38120;53.176;6.614;2023-05-21T01:23:15;12.93;;;4.45;;
52126;SDS011;38120;53.176;6.614;2023-05-21T01:25:41;7.00;;;4.03;;
52126;SDS011;38120;53.176;6.614;2023-05-21T01:28:07;8.75;;;3.78;;
52126;SDS011;38120;53.176;6.614;2023-05-21T01:30:33;7.05;;;5.18;;
52126;SDS011;38120;53.176;6.614;2023-05-21T01:35:36;8.32;;;4.22;;
52126;SDS011;38120;53.176;6.614;2023-05-21T01:38:11;7.30;;;4.43;;
52126;SDS011;38120;53.176;6.614;2023-05-21T01:43:16;8.73;;;5.10;;
52126;SDS011;38120;53.176;6.614;2023-05-21T01:45:43;6.00;;;3.90;;
52126;SDS011;38120;53.176;6.614;2023-05-21T01:48:11;6.55;;;4.30;;
52126;SDS011;38120;53.176;6.614;2023-05-21T01:50:37;7.32;;;4.45;;
52126;SDS011;38120;53.176;6.614;2023-05-21T01:53:05;8.93;;;4.75;;
52126;SDS011;38120;53.176;6.614;2023-05-21T01:55:31;10.18;;;4.68;;
52126;SDS011;38120;53.176;6.614;2023-05-21T01:57:57;9.07;;;5.32;;
52126;SDS011;38120;53.176;6.614;2023-05-21T02:02:53;9.23;;;4.47;;
52126;SDS011;38120;53.176;6.614;2023-05-21T02:05:19;7.15;;;4.88;;
52126;SDS011;38120;53.176;6.614;2023-05-21T02:07:45;13.27;;;5.93;;
52126;SDS011;38120;53.176;6.614;2023-05-21T02:12:37;8.25;;;5.45;;
52126;SDS011;38120;53.176;6.614;2023-05-21T02:15:03;8.85;;;5.70;;
52126;SDS011;38120;53.176;6.614;2023-05-21T02:17:30;11.73;;;5.47;;
52126;SDS011;38120;53.176;6.614;2023-05-21T02:20:01;8.88;;;5.03;;
52126;SDS011;38120;53.176;6.614;2023-05-21T02:22:37;9.75;;;5.88;;
52126;SDS011;38120;53.176;6.614;2023-05-21T02:25:07;14.02;;;5.30;;
52126;SDS011;38120;53.176;6.614;2023-05-21T02:27:37;11.77;;;5.95;;
52126;SDS011;38120;53.176;6.614;2023-05-21T02:30:04;7.97;;;4.88;;
52126;SDS011;38120;53.176;6.614;2023-05-21T02:32:32;7.50;;;5.47;;
52126;SDS011;38120;53.176;6.614;2023-05-21T02:34:59;10.57;;;5.65;;
52126;SDS011;38120;53.176;6.614;2023-05-21T02:37:25;9.43;;;4.85;;
52126;SDS011;38120;53.176;6.614;2023-05-21T02:39:55;10.10;;;6.13;;
52126;SDS011;38120;53.176;6.614;2023-05-21T02:42:24;16.20;;;5.85;;
52126;SDS011;38120;53.176;6.614;2023-05-21T02:44:50;9.48;;;5.20;;
52126;SDS011;38120;53.176;6.614;2023-05-21T02:47:17;9.80;;;5.43;;
52126;SDS011;38120;53.176;6.614;2023-05-21T02:49:43;9.60;;;5.45;;
52126;SDS011;38120;53.176;6.614;2023-05-21T02:52:09;10.45;;;5.63;;
52126;SDS011;38120;53.176;6.614;2023-05-21T02:54:35;11.13;;;6.20;;
52126;SDS011;38120;53.176;6.614;2023-05-21T02:57:01;10.60;;;5.32;;
52126;SDS011;38120;53.176;6.614;2023-05-21T02:59:26;10.48;;;5.60;;
52126;SDS011;38120;53.176;6.614;2023-05-21T03:01:52;10.10;;;5.70;;
52126;SDS011;38120;53.176;6.614;2023-05-21T03:04:18;12.13;;;5.40;;
52126;SDS011;38120;53.176;6.614;2023-05-21T03:06:46;8.50;;;5.43;;
52126;SDS011;38120;53.176;6.614;2023-05-21T03:09:15;9.90;;;5.60;;
52126;SDS011;38120;53.176;6.614;2023-05-21T03:11:41;11.98;;;6.13;;
52126;SDS011;38120;53.176;6.614;2023-05-21T03:14:08;8.85;;;5.82;;
52126;SDS011;38120;53.176;6.614;2023-05-21T03:16:34;8.07;;;5.53;;
52126;SDS011;38120;53.176;6.614;2023-05-21T03:19:00;8.93;;;5.60;;
52126;SDS011;38120;53.176;6.614;2023-05-21T03:21:26;9.63;;;5.50;;
52126;SDS011;38120;53.176;6.614;2023-05-21T03:23:54;12.85;;;5.97;;
52126;SDS011;38120;53.176;6.614;2023-05-21T03:26:23;10.32;;;6.03;;
52126;SDS011;38120;53.176;6.614;2023-05-21T03:28:51;10.25;;;6.30;;
52126;SDS011;38120;53.176;6.614;2023-05-21T03:31:18;12.40;;;6.18;;
52126;SDS011;38120;53.176;6.614;2023-05-21T03:33:43;9.60;;;6.15;;
52126;SDS011;38120;53.176;6.614;2023-05-21T03:36:09;11.52;;;6.25;;
52126;SDS011;38120;53.176;6.614;2023-05-21T03:38:35;11.57;;;6.03;;
52126;SDS011;38120;53.176;6.614;2023-05-21T03:41:00;14.18;;;6.40;;
52126;SDS011;38120;53.176;6.614;2023-05-21T03:43:26;10.30;;;5.10;;
52126;SDS011;38120;53.176;6.614;2023-05-21T03:45:53;10.67;;;6.57;;
52126;SDS011;38120;53.176;6.614;2023-05-21T03:48:18;11.90;;;5.43;;
52126;SDS011;38120;53.176;6.614;2023-05-21T03:50:44;10.50;;;6.50;;
52126;SDS011;38120;53.176;6.614;2023-05-21T03:53:10;9.60;;;5.27;;
52126;SDS011;38120;53.176;6.614;2023-05-21T03:55:36;14.25;;;6.53;;
52126;SDS011;38120;53.176;6.614;2023-05-21T03:58:02;9.95;;;5.80;;
52126;SDS011;38120;53.176;6.614;2023-05-21T04:00:28;11.98;;;6.32;;
52126;SDS011;38120;53.176;6.614;2023-05-21T04:02:53;14.07;;;6.00;;
52126;SDS011;38120;53.176;6.614;2023-05-21T04:05:19;13.98;;;6.55;;
52126;SDS011;38120;53.176;6.614;2023-05-21T04:07:45;9.50;;;5.88;;
52126;SDS011;38120;53.176;6.614;2023-05-21T04:10:11;11.83;;;5.97;;
52126;SDS011;38120;53.176;6.614;2023-05-21T04:12:37;9.90;;;5.05;;
52126;SDS011;38120;53.176;6.614;2023-05-21T04:15:02;9.10;;;5.47;;
52126;SDS011;38120;53.176;6.614;2023-05-21T04:17:28;12.23;;;5.60;;
52126;SDS011;38120;53.176;6.614;2023-05-21T04:19:54;8.75;;;5.32;;
52126;SDS011;38120;53.176;6.614;2023-05-21T04:22:20;10.52;;;6.05;;
52126;SDS011;38120;53.176;6.614;2023-05-21T04:24:47;12.73;;;5.60;;
52126;SDS011;38120;53.176;6.614;2023-05-21T04:27:13;8.52;;;5.55;;
52126;SDS011;38120;53.176;6.614;2023-05-21T04:29:40;11.18;;;5.43;;
52126;SDS011;38120;53.176;6.614;2023-05-21T04:32:07;10.55;;;5.32;;
52126;SDS011;38120;53.176;6.614;2023-05-21T04:34:33;12.65;;;5.28;;
52126;SDS011;38120;53.176;6.614;2023-05-21T04:36:59;9.57;;;4.47;;
52126;SDS011;38120;53.176;6.614;2023-05-21T04:39:26;12.45;;;5.28;;
52126;SDS011;38120;53.176;6.614;2023-05-21T04:46:46;8.07;;;4.55;;
52126;SDS011;38120;53.176;6.614;2023-05-21T04:49:13;10.65;;;5.07;;
52126;SDS011;38120;53.176;6.614;2023-05-21T04:51:39;7.85;;;5.13;;
52126;SDS011;38120;53.176;6.614;2023-05-21T04:54:05;17.38;;;5.82;;
52126;SDS011;38120;53.176;6.614;2023-05-21T04:56:31;11.43;;;4.30;;
52126;SDS011;38120;53.176;6.614;2023-05-21T04:58:57;9.65;;;4.35;;
52126;SDS011;38120;53.176;6.614;2023-05-21T05:01:23;8.80;;;3.87;;
52126;SDS011;38120;53.176;6.614;2023-05-21T05:03:50;9.75;;;4.65;;
52126;SDS011;38120;53.176;6.614;2023-05-21T05:06:17;10.68;;;4.60;;
52126;SDS011;38120;53.176;6.614;2023-05-21T05:08:42;11.02;;;5.43;;
52126;SDS011;38120;53.176;6.614;2023-05-21T05:11:10;7.75;;;3.97;;
52126;SDS011;38120;53.176;6.614;2023-05-21T05:13:37;10.52;;;5.75;;
52126;SDS011;38120;53.176;6.614;2023-05-21T05:16:05;8.65;;;4.40;;
52126;SDS011;38120;53.176;6.614;2023-05-21T05:20:58;9.43;;;5.32;;
52126;SDS011;38120;53.176;6.614;2023-05-21T05:25:50;7.57;;;4.38;;
52126;SDS011;38120;53.176;6.614;2023-05-21T05:28:16;13.15;;;3.38;;
52126;SDS011;38120;53.176;6.614;2023-05-21T05:30:41;9.95;;;3.97;;
52126;SDS011;38120;53.176;6.614;2023-05-21T05:33:07;13.30;;;4.30;;
52126;SDS011;38120;53.176;6.614;2023-05-21T05:35:33;9.85;;;4.32;;
52126;SDS011;38120;53.176;6.614;2023-05-21T05:37:59;8.27;;;4.35;;
52126;SDS011;38120;53.176;6.614;2023-05-21T05:40:25;10.10;;;4.32;;
52126;SDS011;38120;53.176;6.614;2023-05-21T05:42:50;10.50;;;3.72;;
52126;SDS011;38120;53.176;6.614;2023-05-21T05:45:17;8.93;;;3.65;;
52126;SDS011;38120;53.176;6.614;2023-05-21T05:47:43;9.60;;;4.15;;
52126;SDS011;38120;53.176;6.614;2023-05-21T05:50:09;7.82;;;3.72;;
52126;SDS011;38120;53.176;6.614;2023-05-21T05:52:35;7.15;;;3.65;;
52126;SDS011;38120;53.176;6.614;2023-05-21T05:55:01;8.33;;;4.70;;
52126;SDS011;38120;53.176;6.614;2023-05-21T05:57:27;8.15;;;4.15;;
52126;SDS011;38120;53.176;6.614;2023-05-21T05:59:53;8.18;;;3.80;;
52126;SDS011;38120;53.176;6.614;2023-05-21T06:02:19;9.95;;;3.35;;
52126;SDS011;38120;53.176;6.614;2023-05-21T06:04:44;6.95;;;3.85;;
52126;SDS011;38120;53.176;6.614;2023-05-21T06:07:10;15.68;;;4.47;;
52126;SDS011;38120;53.176;6.614;2023-05-21T06:09:36;7.57;;;3.97;;
52126;SDS011;38120;53.176;6.614;2023-05-21T06:12:03;9.48;;;4.25;;
52126;SDS011;38120;53.176;6.614;2023-05-21T06:14:30;7.35;;;4.25;;
52126;SDS011;38120;53.176;6.614;2023-05-21T06:16:56;7.60;;;3.97;;
52126;SDS011;38120;53.176;6.614;2023-05-21T06:19:21;8.02;;;3.70;;
52126;SDS011;38120;53.176;6.614;2023-05-21T06:21:48;7.28;;;3.75;;
52126;SDS011;38120;53.176;6.614;2023-05-21T06:24:14;12.45;;;4.13;;
52126;SDS011;38120;53.176;6.614;2023-05-21T06:26:40;6.57;;;3.55;;
52126;SDS011;38120;53.176;6.614;2023-05-21T06:29:06;8.13;;;4.57;;
52126;SDS011;38120;53.176;6.614;2023-05-21T06:31:32;10.60;;;4.68;;
52126;SDS011;38120;53.176;6.614;2023-05-21T06:33:58;9.98;;;4.43;;
52126;SDS011;38120;53.176;6.614;2023-05-21T06:38:54;7.85;;;4.32;;
52126;SDS011;38120;53.176;6.614;2023-05-21T06:41:21;8.57;;;4.13;;
52126;SDS011;38120;53.176;6.614;2023-05-21T06:43:47;7.38;;;3.70;;
52126;SDS011;38120;53.176;6.614;2023-05-21T06:46:13;9.55;;;4.28;;
52126;SDS011;38120;53.176;6.614;2023-05-21T06:48:38;12.25;;;4.47;;
52126;SDS011;38120;53.176;6.614;2023-05-21T06:51:04;9.02;;;3.53;;
52126;SDS011;38120;53.176;6.614;2023-05-21T06:53:30;10.77;;;4.10;;
52126;SDS011;38120;53.176;6.614;2023-05-21T06:55:56;8.65;;;3.97;;
52126;SDS011;38120;53.176;6.614;2023-05-21T06:58:21;9.03;;;3.63;;
52126;SDS011;38120;53.176;6.614;2023-05-21T07:00:47;12.35;;;4.90;;
52126;SDS011;38120;53.176;6.614;2023-05-21T07:03:13;8.60;;;3.95;;
52126;SDS011;38120;53.176;6.614;2023-05-21T07:08:05;10.93;;;4.82;;
52126;SDS011;38120;53.176;6.614;2023-05-21T07:10:31;9.68;;;4.13;;
52126;SDS011;38120;53.176;6.614;2023-05-21T07:12:56;8.25;;;4.38;;
52126;SDS011;38120;53.176;6.614;2023-05-21T07:15:22;7.65;;;4.43;;
52126;SDS011;38120;53.176;6.614;2023-05-21T07:17:48;9.05;;;4.05;;
52126;SDS011;38120;53.176;6.614;2023-05-21T07:20:15;8.02;;;4.60;;
52126;SDS011;38120;53.176;6.614;2023-05-21T07:22:41;8.95;;;3.88;;
52126;SDS011;38120;53.176;6.614;2023-05-21T07:25:08;10.90;;;3.80;;
52126;SDS011;38120;53.176;6.614;2023-05-21T07:27:34;8.82;;;4.05;;
52126;SDS011;38120;53.176;6.614;2023-05-21T07:29:59;10.30;;;4.60;;
52126;SDS011;38120;53.176;6.614;2023-05-21T07:32:25;6.82;;;3.83;;
52126;SDS011;38120;53.176;6.614;2023-05-21T07:34:53;9.07;;;4.22;;
52126;SDS011;38120;53.176;6.614;2023-05-21T07:37:19;10.70;;;3.97;;
52126;SDS011;38120;53.176;6.614;2023-05-21T07:39:45;7.00;;;4.40;;
52126;SDS011;38120;53.176;6.614;2023-05-21T07:42:11;8.90;;;3.97;;
52126;SDS011;38120;53.176;6.614;2023-05-21T07:44:36;12.27;;;3.75;;
52126;SDS011;38120;53.176;6.614;2023-05-21T07:47:02;8.43;;;4.22;;
52126;SDS011;38120;53.176;6.614;2023-05-21T07:49:28;7.22;;;3.80;;
52126;SDS011;38120;53.176;6.614;2023-05-21T07:51:54;11.32;;;5.15;;
52126;SDS011;38120;53.176;6.614;2023-05-21T07:54:20;8.05;;;3.75;;
52126;SDS011;38120;53.176;6.614;2023-05-21T07:56:46;6.82;;;3.85;;
52126;SDS011;38120;53.176;6.614;2023-05-21T07:59:15;8.15;;;3.83;;
52126;SDS011;38120;53.176;6.614;2023-05-21T08:01:41;7.78;;;3.55;;
52126;SDS011;38120;53.176;6.614;2023-05-21T08:04:07;7.65;;;3.85;;
52126;SDS011;38120;53.176;6.614;2023-05-21T08:06:33;7.13;;;4.15;;
52126;SDS011;38120;53.176;6.614;2023-05-21T08:09:01;8.20;;;4.32;;
52126;SDS011;38120;53.176;6.614;2023-05-21T08:11:27;7.00;;;3.60;;
52126;SDS011;38120;53.176;6.614;2023-05-21T08:13:53;8.82;;;3.58;;
52126;SDS011;38120;53.176;6.614;2023-05-21T08:16:19;6.93;;;4.07;;
52126;SDS011;38120;53.176;6.614;2023-05-21T08:18:49;9.98;;;4.65;;
52126;SDS011;38120;53.176;6.614;2023-05-21T08:21:15;7.70;;;4.20;;
52126;SDS011;38120;53.176;6.614;2023-05-21T08:23:41;8.07;;;3.28;;
52126;SDS011;38120;53.176;6.614;2023-05-21T08:26:07;6.90;;;3.85;;
52126;SDS011;38120;53.176;6.614;2023-05-21T08:28:34;7.18;;;3.92;;
52126;SDS011;38120;53.176;6.614;2023-05-21T08:31:02;7.43;;;3.70;;
52126;SDS011;38120;53.176;6.614;2023-05-21T08:33:28;10.70;;;3.90;;
52126;SDS011;38120;53.176;6.614;2023-05-21T08:35:53;9.60;;;4.75;;
52126;SDS011;38120;53.176;6.614;2023-05-21T08:38:19;12.77;;;4.07;;
52126;SDS011;38120;53.176;6.614;2023-05-21T08:40:45;8.57;;;3.45;;
52126;SDS011;38120;53.176;6.614;2023-05-21T08:43:11;7.55;;;3.63;;
52126;SDS011;38120;53.176;6.614;2023-05-21T08:45:41;7.60;;;4.00;;
52126;SDS011;38120;53.176;6.614;2023-05-21T08:48:09;10.95;;;3.85;;
52126;SDS011;38120;53.176;6.614;2023-05-21T08:50:36;8.63;;;4.05;;
52126;SDS011;38120;53.176;6.614;2023-05-21T08:53:02;9.63;;;4.05;;
52126;SDS011;38120;53.176;6.614;2023-05-21T08:55:28;9.38;;;4.05;;
52126;SDS011;38120;53.176;6.614;2023-05-21T08:57:55;7.20;;;3.65;;
52126;SDS011;38120;53.176;6.614;2023-05-21T09:00:20;8.02;;;3.65;;
52126;SDS011;38120;53.176;6.614;2023-05-21T09:02:47;7.90;;;3.70;;
52126;SDS011;38120;53.176;6.614;2023-05-21T09:05:13;9.38;;;3.58;;
52126;SDS011;38120;53.176;6.614;2023-05-21T09:07:46;7.97;;;3.20;;
52126;SDS011;38120;53.176;6.614;2023-05-21T09:10:20;8.50;;;3.20;;
52126;SDS011;38120;53.176;6.614;2023-05-21T09:12:48;8.43;;;3.10;;
52126;SDS011;38120;53.176;6.614;2023-05-21T09:15:14;6.60;;;2.88;;
52126;SDS011;38120;53.176;6.614;2023-05-21T09:17:40;7.55;;;3.15;;
52126;SDS011;38120;53.176;6.614;2023-05-21T09:20:10;7.15;;;3.03;;
52126;SDS011;38120;53.176;6.614;2023-05-21T09:22:42;10.27;;;3.83;;
52126;SDS011;38120;53.176;6.614;2023-05-21T09:25:22;7.50;;;3.28;;
52126;SDS011;38120;53.176;6.614;2023-05-21T09:27:52;6.90;;;3.35;;
52126;SDS011;38120;53.176;6.614;2023-05-21T09:30:22;8.00;;;3.60;;
52126;SDS011;38120;53.176;6.614;2023-05-21T09:32:58;6.90;;;3.30;;
52126;SDS011;38120;53.176;6.614;2023-05-21T09:35:24;12.20;;;3.40;;
52126;SDS011;38120;53.176;6.614;2023-05-21T09:37:51;6.28;;;2.95;;
52126;SDS011;38120;53.176;6.614;2023-05-21T09:40:18;6.18;;;2.95;;
52126;SDS011;38120;53.176;6.614;2023-05-21T09:42:46;7.50;;;3.08;;
52126;SDS011;38120;53.176;6.614;2023-05-21T09:47:46;6.57;;;3.90;;
52126;SDS011;38120;53.176;6.614;2023-05-21T09:50:15;8.82;;;3.60;;
52126;SDS011;38120;53.176;6.614;2023-05-21T09:52:45;6.07;;;3.25;;
52126;SDS011;38120;53.176;6.614;2023-05-21T09:55:12;9.10;;;4.03;;
52126;SDS011;38120;53.176;6.614;2023-05-21T09:57:39;10.00;;;4.47;;
52126;SDS011;38120;53.176;6.614;2023-05-21T10:00:06;7.43;;;3.70;;
52126;SDS011;38120;53.176;6.614;2023-05-21T10:02:33;7.55;;;3.90;;
52126;SDS011;38120;53.176;6.614;2023-05-21T10:05:01;9.93;;;3.45;;
52126;SDS011;38120;53.176;6.614;2023-05-21T10:07:29;8.88;;;4.03;;
52126;SDS011;38120;53.176;6.614;2023-05-21T10:09:56;11.95;;;3.30;;
52126;SDS011;38120;53.176;6.614;2023-05-21T10:12:23;7.18;;;3.20;;
52126;SDS011;38120;53.176;6.614;2023-05-21T10:14:58;7.75;;;3.45;;
52126;SDS011;38120;53.176;6.614;2023-05-21T10:17:27;8.63;;;3.17;;
52126;SDS011;38120;53.176;6.614;2023-05-21T10:19:54;7.00;;;3.42;;
52126;SDS011;38120;53.176;6.614;2023-05-21T10:22:24;9.07;;;3.83;;
52126;SDS011;38120;53.176;6.614;2023-05-21T10:24:51;5.35;;;2.67;;
52126;SDS011;38120;53.176;6.614;2023-05-21T10:27:17;8.13;;;3.40;;
52126;SDS011;38120;53.176;6.614;2023-05-21T10:29:44;7.53;;;2.97;;
52126;SDS011;38120;53.176;6.614;2023-05-21T10:32:14;7.63;;;2.95;;
52126;SDS011;38120;53.176;6.614;2023-05-21T10:34:42;7.75;;;3.67;;
52126;SDS011;38120;53.176;6.614;2023-05-21T10:37:08;6.95;;;3.30;;
52126;SDS011;38120;53.176;6.614;2023-05-21T10:39:39;8.02;;;3.22;;
52126;SDS011;38120;53.176;6.614;2023-05-21T10:56:18;7.53;;;3.67;;
52126;SDS011;38120;53.176;6.614;2023-05-21T11:01:31;7.85;;;3.50;;
52126;SDS011;38120;53.176;6.614;2023-05-21T11:04:00;8.38;;;3.17;;
52126;SDS011;38120;53.176;6.614;2023-05-21T11:06:27;12.88;;;4.65;;
52126;SDS011;38120;53.176;6.614;2023-05-21T11:08:53;8.35;;;3.90;;
52126;SDS011;38120;53.176;6.614;2023-05-21T11:11:38;11.02;;;3.95;;
52126;SDS011;38120;53.176;6.614;2023-05-21T11:19:34;8.20;;;4.00;;
52126;SDS011;38120;53.176;6.614;2023-05-21T11:22:01;13.30;;;4.72;;
52126;SDS011;38120;53.176;6.614;2023-05-21T11:24:30;8.48;;;4.35;;
52126;SDS011;38120;53.176;6.614;2023-05-21T11:26:58;8.60;;;4.50;;
52126;SDS011;38120;53.176;6.614;2023-05-21T11:29:44;10.70;;;4.70;;
52126;SDS011;38120;53.176;6.614;2023-05-21T11:32:11;11.63;;;4.78;;
52126;SDS011;38120;53.176;6.614;2023-05-21T11:34:39;9.98;;;4.70;;
52126;SDS011;38120;53.176;6.614;2023-05-21T11:39:42;10.45;;;5.05;;
52126;SDS011;38120;53.176;6.614;2023-05-21T11:42:08;9.70;;;4.00;;
52126;SDS011;38120;53.176;6.614;2023-05-21T11:44:38;9.75;;;4.53;;
52126;SDS011;38120;53.176;6.614;2023-05-21T11:47:05;10.98;;;4.35;;
52126;SDS011;38120;53.176;6.614;2023-05-21T11:49:32;9.55;;;4.57;;
52126;SDS011;38120;53.176;6.614;2023-05-21T11:51:59;13.00;;;5.32;;
52126;SDS011;38120;53.176;6.614;2023-05-21T11:54:29;11.75;;;5.45;;
52126;SDS011;38120;53.176;6.614;2023-05-21T11:57:01;10.10;;;4.85;;
52126;SDS011;38120;53.176;6.614;2023-05-21T11:59:31;12.82;;;6.40;;
52126;SDS011;38120;53.176;6.614;2023-05-21T12:01:57;11.88;;;5.90;;
52126;SDS011;38120;53.176;6.614;2023-05-21T12:04:23;12.18;;;6.03;;
52126;SDS011;38120;53.176;6.614;2023-05-21T12:06:57;11.05;;;5.32;;
52126;SDS011;38120;53.176;6.614;2023-05-21T12:09:23;10.55;;;5.55;;
52126;SDS011;38120;53.176;6.614;2023-05-21T12:11:49;11.98;;;6.03;;
52126;SDS011;38120;53.176;6.614;2023-05-21T12:14:15;13.05;;;6.22;;
52126;SDS011;38120;53.176;6.614;2023-05-21T12:19:07;12.45;;;6.05;;
52126;SDS011;38120;53.176;6.614;2023-05-21T12:23:59;15.05;;;7.20;;
52126;SDS011;38120;53.176;6.614;2023-05-21T12:28:54;12.07;;;6.40;;
52126;SDS011;38120;53.176;6.614;2023-05-21T12:31:23;10.45;;;6.20;;
52126;SDS011;38120;53.176;6.614;2023-05-21T12:33:51;15.65;;;8.00;;
52126;SDS011;38120;53.176;6.614;2023-05-21T12:36:27;13.77;;;6.63;;
52126;SDS011;38120;53.176;6.614;2023-05-21T12:38:54;13.32;;;6.47;;
52126;SDS011;38120;53.176;6.614;2023-05-21T12:41:22;11.10;;;6.20;;
52126;SDS011;38120;53.176;6.614;2023-05-21T12:46:15;16.60;;;6.50;;
52126;SDS011;38120;53.176;6.614;2023-05-21T12:48:49;11.90;;;6.93;;
52126;SDS011;38120;53.176;6.614;2023-05-21T12:51:19;14.20;;;7.80;;
52126;SDS011;38120;53.176;6.614;2023-05-21T12:53:45;14.25;;;6.60;;
52126;SDS011;38120;53.176;6.614;2023-05-21T12:56:12;14.65;;;6.68;;
52126;SDS011;38120;53.176;6.614;2023-05-21T12:58:39;12.73;;;6.75;;
52126;SDS011;38120;53.176;6.614;2023-05-21T13:01:06;13.05;;;8.13;;
52126;SDS011;38120;53.176;6.614;2023-05-21T13:03:32;13.38;;;7.70;;
52126;SDS011;38120;53.176;6.614;2023-05-21T13:08:25;11.10;;;7.30;;
52126;SDS011;38120;53.176;6.614;2023-05-21T13:13:17;11.82;;;6.43;;
52126;SDS011;38120;53.176;6.614;2023-05-21T13:15:42;11.02;;;7.25;;
52126;SDS011;38120;53.176;6.614;2023-05-21T13:18:08;13.10;;;8.15;;
52126;SDS011;38120;53.176;6.614;2023-05-21T13:20:34;13.25;;;7.15;;
52126;SDS011;38120;53.176;6.614;2023-05-21T13:23:00;16.60;;;7.95;;
52126;SDS011;38120;53.176;6.614;2023-05-21T13:25:27;13.82;;;8.00;;
52126;SDS011;38120;53.176;6.614;2023-05-21T13:27:53;12.43;;;8.27;;
52126;SDS011;38120;53.176;6.614;2023-05-21T13:30:20;14.68;;;7.22;;
52126;SDS011;38120;53.176;6.614;2023-05-21T13:32:46;11.23;;;8.02;;
52126;SDS011;38120;53.176;6.614;2023-05-21T13:35:12;12.98;;;7.80;;
52126;SDS011;38120;53.176;6.614;2023-05-21T13:37:40;16.85;;;9.85;;
52126;SDS011;38120;53.176;6.614;2023-05-21T13:40:07;16.73;;;9.65;;
52126;SDS011;38120;53.176;6.614;2023-05-21T13:42:39;16.25;;;8.65;;
52126;SDS011;38120;53.176;6.614;2023-05-21T13:45:05;12.27;;;8.40;;
52126;SDS011;38120;53.176;6.614;2023-05-21T13:47:32;16.65;;;9.63;;
52126;SDS011;38120;53.176;6.614;2023-05-21T13:49:58;12.82;;;9.00;;
52126;SDS011;38120;53.176;6.614;2023-05-21T13:52:24;22.00;;;11.95;;
52126;SDS011;38120;53.176;6.614;2023-05-21T13:54:50;17.05;;;9.82;;
52126;SDS011;38120;53.176;6.614;2023-05-21T13:57:16;20.63;;;11.98;;
52126;SDS011;38120;53.176;6.614;2023-05-21T13:59:42;16.40;;;11.45;;
52126;SDS011;38120;53.176;6.614;2023-05-21T14:02:08;18.00;;;12.32;;
52126;SDS011;38120;53.176;6.614;2023-05-21T14:04:34;19.70;;;11.82;;
52126;SDS011;38120;53.176;6.614;2023-05-21T14:07:00;19.15;;;11.07;;
52126;SDS011;38120;53.176;6.614;2023-05-21T14:09:27;18.85;;;11.93;;
52126;SDS011;38120;53.176;6.614;2023-05-21T14:11:55;21.67;;;11.95;;
52126;SDS011;38120;53.176;6.614;2023-05-21T14:14:21;19.27;;;11.73;;
52126;SDS011;38120;53.176;6.614;2023-05-21T14:19:13;21.80;;;11.55;;
52126;SDS011;38120;53.176;6.614;2023-05-21T14:24:05;19.35;;;12.27;;
52126;SDS011;38120;53.176;6.614;2023-05-21T14:26:31;18.30;;;11.68;;
52126;SDS011;38120;53.176;6.614;2023-05-21T14:28:57;17.25;;;12.05;;
52126;SDS011;38120;53.176;6.614;2023-05-21T14:31:23;19.35;;;12.73;;
52126;SDS011;38120;53.176;6.614;2023-05-21T14:33:49;18.52;;;12.77;;
52126;SDS011;38120;53.176;6.614;2023-05-21T14:36:15;21.05;;;12.25;;
52126;SDS011;38120;53.176;6.614;2023-05-21T14:38:41;23.52;;;13.85;;
52126;SDS011;38120;53.176;6.614;2023-05-21T14:41:07;21.92;;;13.10;;
52126;SDS011;38120;53.176;6.614;2023-05-21T14:43:34;22.25;;;14.65;;
52126;SDS011;38120;53.176;6.614;2023-05-21T14:46:00;17.73;;;12.40;;
52126;SDS011;38120;53.176;6.614;2023-05-21T14:48:26;17.90;;;12.85;;
52126;SDS011;38120;53.176;6.614;2023-05-21T14:50:52;16.90;;;12.70;;
52126;SDS011;38120;53.176;6.614;2023-05-21T14:55:44;21.33;;;13.30;;
52126;SDS011;38120;53.176;6.614;2023-05-21T14:58:10;18.67;;;13.20;;
52126;SDS011;38120;53.176;6.614;2023-05-21T15:00:36;25.58;;;13.90;;
52126;SDS011;38120;53.176;6.614;2023-05-21T15:03:02;21.00;;;14.65;;
52126;SDS011;38120;53.176;6.614;2023-05-21T15:05:29;22.83;;;13.25;;
52126;SDS011;38120;53.176;6.614;2023-05-21T15:07:55;19.77;;;12.18;;
52126;SDS011;38120;53.176;6.614;2023-05-21T15:10:25;19.60;;;12.40;;
52126;SDS011;38120;53.176;6.614;2023-05-21T15:12:52;19.73;;;13.07;;
52126;SDS011;38120;53.176;6.614;2023-05-21T15:17:47;19.90;;;12.48;;
52126;SDS011;38120;53.176;6.614;2023-05-21T15:20:14;18.48;;;12.82;;
52126;SDS011;38120;53.176;6.614;2023-05-21T15:22:40;15.60;;;12.23;;
52126;SDS011;38120;53.176;6.614;2023-05-21T15:25:06;21.38;;;12.93;;
52126;SDS011;38120;53.176;6.614;2023-05-21T15:27:32;20.15;;;12.90;;
52126;SDS011;38120;53.176;6.614;2023-05-21T15:32:24;20.85;;;12.75;;
52126;SDS011;38120;53.176;6.614;2023-05-21T15:37:16;19.80;;;13.23;;
52126;SDS011;38120;53.176;6.614;2023-05-21T15:39:42;19.73;;;12.75;;
52126;SDS011;38120;53.176;6.614;2023-05-21T15:42:09;18.00;;;12.52;;
52126;SDS011;38120;53.176;6.614;2023-05-21T15:44:35;17.35;;;12.35;;
52126;SDS011;38120;53.176;6.614;2023-05-21T15:47:05;20.08;;;13.40;;
52126;SDS011;38120;53.176;6.614;2023-05-21T15:49:31;19.25;;;12.55;;
52126;SDS011;38120;53.176;6.614;2023-05-21T15:51:57;21.45;;;12.65;;
52126;SDS011;38120;53.176;6.614;2023-05-21T15:54:24;20.35;;;13.82;;
52126;SDS011;38120;53.176;6.614;2023-05-21T15:56:54;20.92;;;13.27;;
52126;SDS011;38120;53.176;6.614;2023-05-21T15:59:20;22.55;;;13.45;;
52126;SDS011;38120;53.176;6.614;2023-05-21T16:01:46;16.98;;;12.73;;
52126;SDS011;38120;53.176;6.614;2023-05-21T16:06:39;17.38;;;12.35;;
52126;SDS011;38120;53.176;6.614;2023-05-21T16:09:05;20.02;;;13.38;;